createdAt,value
2018-09-16T00:01:38.550Z,8.77
2018-09-16T00:04:08.471Z,8.03
2018-09-16T00:06:38.937Z,9.30
2018-09-16T00:09:10.656Z,7.97
2018-09-16T00:11:41.980Z,9.27
2018-09-16T00:14:11.918Z,10.47
2018-09-16T00:16:41.792Z,9.00
2018-09-16T00:19:11.374Z,8.87
2018-09-16T00:21:40.906Z,8.87
2018-09-16T00:24:10.762Z,9.23
2018-09-16T00:26:40.366Z,10.70
2018-09-16T00:29:10.051Z,9.53
2018-09-16T00:31:40.409Z,9.97
2018-09-16T00:34:10.660Z,9.80
2018-09-16T00:36:40.450Z,9.47
2018-09-16T00:39:11.053Z,10.90
2018-09-16T00:41:40.739Z,10.23
2018-09-16T00:44:10.251Z,10.40
2018-09-16T00:46:39.987Z,11.37
2018-09-16T00:49:09.697Z,10.23
2018-09-16T00:51:40.638Z,10.00
2018-09-16T00:54:10.862Z,11.30
2018-09-16T00:56:40.504Z,10.87
2018-09-16T00:59:10.231Z,10.03
2018-09-16T01:01:40.411Z,10.20
2018-09-16T01:04:10.383Z,11.70
2018-09-16T01:06:40.049Z,11.40
2018-09-16T01:09:14.593Z,11.90
2018-09-16T01:11:44.191Z,12.00
2018-09-16T01:14:14.629Z,11.73
2018-09-16T01:16:44.249Z,11.50
2018-09-16T01:19:14.384Z,12.40
2018-09-16T01:21:43.999Z,11.43
2018-09-16T01:24:13.775Z,13.50
2018-09-16T01:26:43.472Z,14.77
2018-09-16T01:29:13.088Z,14.33
2018-09-16T01:31:43.866Z,13.50
2018-09-16T01:34:14.136Z,12.27
2018-09-16T01:36:43.723Z,10.50
2018-09-16T01:39:13.249Z,8.90
2018-09-16T01:41:43.177Z,8.90
2018-09-16T01:44:13.382Z,9.87
2018-09-16T01:46:43.160Z,10.30
2018-09-16T01:49:13.332Z,10.90
2018-09-16T01:51:42.897Z,12.03
2018-09-16T01:54:12.673Z,13.50
2018-09-16T01:56:42.200Z,12.50
2018-09-16T01:59:11.703Z,11.53
2018-09-16T02:01:42.336Z,11.00
2018-09-16T02:04:11.916Z,10.87
2018-09-16T02:06:41.714Z,10.97
2018-09-16T02:09:11.558Z,10.77
2018-09-16T02:11:42.767Z,10.67
2018-09-16T02:14:13.651Z,10.10
2018-09-16T02:16:43.227Z,10.53
2018-09-16T02:19:13.606Z,11.30
2018-09-16T02:21:43.231Z,10.07
2018-09-16T02:24:14.017Z,9.57
2018-09-16T02:26:44.469Z,10.63
2018-09-16T02:29:14.498Z,10.90
2018-09-16T02:31:44.738Z,12.03
2018-09-16T02:34:14.295Z,12.93
2018-09-16T02:36:44.194Z,12.50
2018-09-16T02:39:13.691Z,12.90
2018-09-16T02:41:43.895Z,12.03
2018-09-16T02:44:14.865Z,10.00
2018-09-16T02:46:45.446Z,8.60
2018-09-16T02:49:15.164Z,8.67
2018-09-16T02:51:44.749Z,9.60
2018-09-16T02:54:15.448Z,9.37
2018-09-16T02:56:45.309Z,9.50
2018-09-16T02:59:15.824Z,10.63
2018-09-16T03:01:45.392Z,11.70
2018-09-16T03:04:14.910Z,11.17
2018-09-16T03:06:45.202Z,10.40
2018-09-16T03:09:15.785Z,10.93
2018-09-16T03:11:45.365Z,11.43
2018-09-16T03:14:14.766Z,9.33
2018-09-16T03:16:45.039Z,11.90
2018-09-16T03:19:14.640Z,13.03
2018-09-16T03:21:44.263Z,11.20
2018-09-16T03:24:13.976Z,11.23
2018-09-16T03:26:43.494Z,9.63
2018-09-16T03:29:13.438Z,7.00
2018-09-16T03:31:44.052Z,7.23
2018-09-16T03:34:13.748Z,7.20
2018-09-16T03:36:43.616Z,7.53
2018-09-16T03:39:13.129Z,9.13
2018-09-16T03:41:43.323Z,9.77
2018-09-16T03:44:13.007Z,11.00
2018-09-16T03:46:42.921Z,11.07
2018-09-16T03:49:12.354Z,10.23
2018-09-16T03:51:42.248Z,9.63
2018-09-16T03:54:12.331Z,8.93
2018-09-16T03:56:41.838Z,6.70
2018-09-16T03:59:11.184Z,8.30
2018-09-16T04:01:41.279Z,7.50
2018-09-16T04:04:11.524Z,7.40
2018-09-16T04:06:41.544Z,7.90
2018-09-16T04:09:11.806Z,8.43
2018-09-16T04:11:41.369Z,9.03
2018-09-16T04:14:11.018Z,9.07
2018-09-16T04:16:40.548Z,8.83
2018-09-16T04:19:11.450Z,8.67
2018-09-16T04:21:41.700Z,8.47
2018-09-16T04:24:15.708Z,7.80
2018-09-16T04:26:46.585Z,7.87
2018-09-16T04:29:16.205Z,7.63
2018-09-16T04:31:46.446Z,7.93
2018-09-16T04:34:16.158Z,9.43
2018-09-16T04:36:46.000Z,8.30
2018-09-16T04:39:15.594Z,9.80
2018-09-16T04:41:45.382Z,8.57
2018-09-16T04:44:15.470Z,11.27
2018-09-16T04:46:44.936Z,10.13
2018-09-16T04:49:15.742Z,8.03
2018-09-16T04:51:46.118Z,7.60
2018-09-16T04:54:16.114Z,6.83
2018-09-16T04:56:45.630Z,7.17
2018-09-16T04:59:15.526Z,7.03
2018-09-16T05:01:44.977Z,6.67
2018-09-16T05:04:14.447Z,7.80
2018-09-16T05:06:44.231Z,6.90
2018-09-16T05:09:15.527Z,8.77
2018-09-16T05:11:45.759Z,7.07
2018-09-16T05:14:16.107Z,7.00
2018-09-16T05:16:45.707Z,7.20
2018-09-16T05:19:15.262Z,7.30
2018-09-16T05:21:44.853Z,6.93
2018-09-16T05:24:14.654Z,7.40
2018-09-16T05:26:44.860Z,8.93
2018-09-16T05:29:14.687Z,11.03
2018-09-16T05:31:45.232Z,11.30
2018-09-16T05:34:14.842Z,9.40
2018-09-16T05:36:45.022Z,10.27
2018-09-16T05:39:15.406Z,9.27
2018-09-16T05:41:44.956Z,8.63
2018-09-16T05:44:14.552Z,8.70
2018-09-16T05:46:44.490Z,8.87
2018-09-16T05:49:14.684Z,9.13
2018-09-16T05:51:44.299Z,10.57
2018-09-16T05:54:14.111Z,10.17
2018-09-16T05:56:46.623Z,11.00
2018-09-16T05:59:16.521Z,13.90
2018-09-16T06:01:46.887Z,14.43
2018-09-16T06:04:20.842Z,15.90
2018-09-16T06:06:50.595Z,16.13
2018-09-16T06:09:20.143Z,17.40
2018-09-16T06:11:50.403Z,16.60
2018-09-16T06:14:20.046Z,17.93
2018-09-16T06:16:49.747Z,17.70
2018-09-16T06:19:20.025Z,19.30
2018-09-16T06:21:50.774Z,20.67
2018-09-16T06:24:21.113Z,22.83
2018-09-16T06:26:51.135Z,25.03
2018-09-16T06:29:20.809Z,27.40
2018-09-16T06:31:51.355Z,28.73
2018-09-16T06:34:22.120Z,31.80
2018-09-16T06:36:56.533Z,34.37
2018-09-16T06:39:30.628Z,36.13
2018-09-16T06:42:00.479Z,36.53
2018-09-16T06:44:30.726Z,39.57
2018-09-16T06:47:00.718Z,40.43
2018-09-16T06:49:30.389Z,42.07
2018-09-16T06:52:00.421Z,42.07
2018-09-16T06:54:29.971Z,41.73
2018-09-16T06:57:00.104Z,41.77
2018-09-16T06:59:31.499Z,46.00
2018-09-16T07:02:01.193Z,47.77
2018-09-16T07:04:30.820Z,49.07
2018-09-16T07:07:02.023Z,48.60
2018-09-16T07:09:31.722Z,46.73
2018-09-16T07:12:04.185Z,45.57
2018-09-16T07:14:35.093Z,44.10
2018-09-16T07:17:04.905Z,36.33
2018-09-16T07:19:35.677Z,31.57
2018-09-16T07:22:05.609Z,26.23
2018-09-16T07:24:35.943Z,26.83
2018-09-16T07:27:05.869Z,24.47
2018-09-16T07:29:35.533Z,19.60
2018-09-16T07:32:06.286Z,17.30
2018-09-16T07:34:36.525Z,14.07
2018-09-16T07:37:07.073Z,15.13
2018-09-16T07:39:37.988Z,15.50
2018-09-16T07:42:08.128Z,15.13
2018-09-16T07:44:37.780Z,14.03
2018-09-16T07:47:07.427Z,12.57
2018-09-16T07:49:38.870Z,12.33
2018-09-16T07:52:08.743Z,11.97
2018-09-16T07:54:38.483Z,9.43
2018-09-16T07:57:08.614Z,9.23
2018-09-16T07:59:38.191Z,10.27
2018-09-16T08:02:13.403Z,9.27
2018-09-16T08:04:43.036Z,7.87
2018-09-16T08:07:13.116Z,8.70
2018-09-16T08:09:43.383Z,8.43
2018-09-16T08:12:14.596Z,8.13
2018-09-16T08:14:44.104Z,7.67
2018-09-16T08:17:15.585Z,7.60
2018-09-16T08:19:45.071Z,6.83
2018-09-16T08:22:14.657Z,7.53
2018-09-16T08:24:45.709Z,7.03
2018-09-16T08:27:15.601Z,7.33
2018-09-16T08:29:46.159Z,6.90
2018-09-16T08:32:20.855Z,7.07
2018-09-16T08:34:50.513Z,6.47
2018-09-16T08:37:24.165Z,6.63
2018-09-16T08:39:57.813Z,6.93
2018-09-16T08:42:27.555Z,6.47
2018-09-16T08:45:04.465Z,6.40
2018-09-16T08:47:35.100Z,6.43
2018-09-16T08:50:07.039Z,6.20
2018-09-16T08:52:37.291Z,5.77
2018-09-16T08:55:07.651Z,5.47
2018-09-16T08:57:39.491Z,5.20
2018-09-16T09:00:10.356Z,5.50
2018-09-16T09:02:40.436Z,5.13
2018-09-16T09:05:11.707Z,5.60
2018-09-16T09:07:42.250Z,5.10
2018-09-16T09:10:18.894Z,5.10
2018-09-16T09:12:48.708Z,5.00
2018-09-16T09:15:23.326Z,4.90
2018-09-16T09:17:53.898Z,5.40
2018-09-16T09:20:26.330Z,5.30
2018-09-16T09:22:56.260Z,4.50
2018-09-16T09:25:26.464Z,5.10
2018-09-16T09:27:59.124Z,4.90
2018-09-16T09:30:28.934Z,5.17
2018-09-16T09:32:58.973Z,5.17
2018-09-16T09:35:29.082Z,5.20
2018-09-16T09:37:59.654Z,4.90
2018-09-16T09:40:29.412Z,4.70
2018-09-16T09:42:59.637Z,5.37
2018-09-16T09:45:30.949Z,4.80
2018-09-16T09:48:00.997Z,4.80
2018-09-16T09:50:31.409Z,4.90
2018-09-16T09:53:01.057Z,5.40
2018-09-16T09:55:31.441Z,5.00
2018-09-16T09:58:01.192Z,4.90
2018-09-16T10:00:35.857Z,4.90
2018-09-16T10:03:05.715Z,5.10
2018-09-16T10:05:35.981Z,4.87
2018-09-16T10:08:08.413Z,4.93
2018-09-16T10:10:39.693Z,4.90
2018-09-16T10:13:13.758Z,4.90
2018-09-16T10:15:43.886Z,5.03
2018-09-16T10:18:14.481Z,4.53
2018-09-16T10:20:45.345Z,4.97
2018-09-16T10:23:15.154Z,4.90
2018-09-16T10:25:45.226Z,4.77
2018-09-16T10:28:16.440Z,4.27
2018-09-16T10:30:50.063Z,5.17
2018-09-16T10:33:19.844Z,4.77
2018-09-16T10:35:49.896Z,5.13
2018-09-16T10:38:20.883Z,5.10
2018-09-16T10:40:51.417Z,5.07
2018-09-16T10:43:26.854Z,4.57
2018-09-16T10:45:57.003Z,5.50
2018-09-16T10:48:27.619Z,4.77
2018-09-16T10:50:57.993Z,4.43
2018-09-16T10:53:28.622Z,4.73
2018-09-16T10:55:58.302Z,5.03
2018-09-16T10:58:27.974Z,4.47
2018-09-16T11:00:59.136Z,4.73
2018-09-16T11:03:29.316Z,4.20
2018-09-16T11:05:59.552Z,4.10
2018-09-16T11:08:29.904Z,5.00
2018-09-16T11:11:00.143Z,3.93
2018-09-16T11:13:31.160Z,4.20
2018-09-16T11:16:00.756Z,4.37
2018-09-16T11:18:31.140Z,4.50
2018-09-16T11:21:01.476Z,4.27
2018-09-16T11:23:31.671Z,4.30
2018-09-16T11:26:01.364Z,4.97
2018-09-16T11:28:30.962Z,4.77
2018-09-16T11:31:00.611Z,4.77
2018-09-16T11:33:30.547Z,4.33
2018-09-16T11:36:00.087Z,4.70
2018-09-16T11:38:29.855Z,4.93
2018-09-16T11:40:59.511Z,4.20
2018-09-16T11:43:29.041Z,4.20
2018-09-16T11:45:59.090Z,4.57
2018-09-16T11:48:28.721Z,4.20
2018-09-16T11:50:58.479Z,4.47
2018-09-16T11:53:28.189Z,4.27
2018-09-16T11:55:58.655Z,4.50
2018-09-16T11:58:29.333Z,4.47
2018-09-16T12:00:59.508Z,4.47
2018-09-16T12:03:34.318Z,4.13
2018-09-16T12:06:07.267Z,4.50
2018-09-16T12:08:37.478Z,4.60
2018-09-16T12:11:09.120Z,4.60
2018-09-16T12:13:40.662Z,4.57
2018-09-16T12:16:11.848Z,4.97
2018-09-16T12:18:41.568Z,4.87
2018-09-16T12:21:11.421Z,4.13
2018-09-16T12:23:42.648Z,4.00
2018-09-16T12:26:13.183Z,4.80
2018-09-16T12:28:43.478Z,4.97
2018-09-16T12:31:13.604Z,3.90
2018-09-16T12:33:44.555Z,4.20
2018-09-16T12:36:14.222Z,4.77
2018-09-16T12:38:43.740Z,4.00
2018-09-16T12:41:14.177Z,4.33
2018-09-16T12:43:44.084Z,4.60
2018-09-16T12:46:14.452Z,4.33
2018-09-16T12:48:48.581Z,4.00
2018-09-16T12:51:18.847Z,4.60
2018-09-16T12:53:50.721Z,4.00
2018-09-16T12:56:24.259Z,4.90
2018-09-16T12:58:55.060Z,4.50
2018-09-16T13:01:26.114Z,4.57
2018-09-16T13:03:56.359Z,4.93
2018-09-16T13:06:28.018Z,5.13
2018-09-16T13:09:02.021Z,4.30
2018-09-16T13:11:32.728Z,4.70
2018-09-16T13:14:06.106Z,4.50
2018-09-16T13:16:38.689Z,4.53
2018-09-16T13:19:09.013Z,4.50
2018-09-16T13:21:39.688Z,5.20
2018-09-16T13:24:10.788Z,4.40
2018-09-16T13:26:42.258Z,4.37
2018-09-16T13:29:13.646Z,4.13
2018-09-16T13:31:45.963Z,4.47
2018-09-16T13:34:16.301Z,4.80
2018-09-16T13:36:47.896Z,4.90
2018-09-16T13:39:17.968Z,5.10
2018-09-16T13:41:52.824Z,4.90
2018-09-16T13:44:23.004Z,4.50
2018-09-16T13:46:52.527Z,4.53
2018-09-16T13:49:22.733Z,4.90
2018-09-16T13:51:52.506Z,4.77
2018-09-16T13:54:23.976Z,4.60
2018-09-16T13:56:54.910Z,4.60
2018-09-16T13:59:24.418Z,4.80
2018-09-16T14:01:54.746Z,4.73
2018-09-16T14:04:25.590Z,4.80
2018-09-16T14:06:55.899Z,4.30
2018-09-16T14:09:26.141Z,4.07
2018-09-16T14:11:55.653Z,4.20
2018-09-16T14:14:26.681Z,4.53
2018-09-16T14:16:56.517Z,4.97
2018-09-16T14:19:26.209Z,4.17
2018-09-16T14:21:55.963Z,4.67
2018-09-16T14:24:26.197Z,4.50
2018-09-16T14:26:56.361Z,4.30
2018-09-16T14:29:25.983Z,4.10
2018-09-16T14:32:03.787Z,4.93
2018-09-16T14:34:33.398Z,4.50
2018-09-16T14:37:03.692Z,4.23
2018-09-16T14:39:33.510Z,4.47
2018-09-16T14:42:03.382Z,4.50
2018-09-16T14:44:33.066Z,4.37
2018-09-16T14:47:02.554Z,4.43
2018-09-16T14:49:32.961Z,3.93
2018-09-16T14:52:03.315Z,4.00
2018-09-16T14:54:33.736Z,4.40
2018-09-16T14:57:03.506Z,4.70
2018-09-16T14:59:33.213Z,4.17
2018-09-16T15:02:03.027Z,4.50
2018-09-16T15:04:32.629Z,4.20
2018-09-16T15:07:06.703Z,4.23
2018-09-16T15:09:36.964Z,4.20
2018-09-16T15:12:09.903Z,4.00
2018-09-16T15:14:42.026Z,3.93
2018-09-16T15:17:11.724Z,4.30
2018-09-16T15:19:42.223Z,4.30
2018-09-16T15:22:15.800Z,3.83
2018-09-16T15:24:48.433Z,3.70
2018-09-16T15:27:18.591Z,4.00
2018-09-16T15:29:52.485Z,4.03
2018-09-16T15:32:22.340Z,4.03
2018-09-16T15:34:51.976Z,4.17
2018-09-16T15:37:22.068Z,4.17
2018-09-16T15:39:53.049Z,4.10
2018-09-16T15:42:23.621Z,3.73
2018-09-16T15:44:54.299Z,3.93
2018-09-16T15:47:23.876Z,4.40
2018-09-16T15:49:53.478Z,3.93
2018-09-16T15:52:23.564Z,4.27
2018-09-16T15:54:53.079Z,4.43
2018-09-16T15:57:23.650Z,4.17
2018-09-16T15:59:53.410Z,3.77
2018-09-16T16:02:23.332Z,4.13
2018-09-16T16:04:54.193Z,3.97
2018-09-16T16:07:23.800Z,3.90
2018-09-16T16:09:53.396Z,4.33
2018-09-16T16:12:23.042Z,4.33
2018-09-16T16:14:54.118Z,3.73
2018-09-16T16:17:24.497Z,4.40
2018-09-16T16:19:55.148Z,4.57
2018-09-16T16:22:24.636Z,4.03
2018-09-16T16:24:55.228Z,4.10
2018-09-16T16:27:25.309Z,3.83
2018-09-16T16:29:55.719Z,4.40
2018-09-16T16:32:25.222Z,4.00
2018-09-16T16:34:54.948Z,4.67
2018-09-16T16:37:30.962Z,3.97
2018-09-16T16:40:00.589Z,4.13
2018-09-16T16:42:30.956Z,4.30
2018-09-16T16:45:01.016Z,3.87
2018-09-16T16:47:30.479Z,4.37
2018-09-16T16:50:00.355Z,5.37
2018-09-16T16:52:30.317Z,5.00
2018-09-16T16:55:00.060Z,4.43
2018-09-16T16:57:29.577Z,5.00
2018-09-16T16:59:59.165Z,4.73
2018-09-16T17:02:29.315Z,4.97
2018-09-16T17:04:58.947Z,4.50
2018-09-16T17:07:28.764Z,4.63
2018-09-16T17:09:58.639Z,4.57
2018-09-16T17:12:30.060Z,4.50
2018-09-16T17:15:02.347Z,5.00
2018-09-16T17:17:33.241Z,5.30
2018-09-16T17:20:03.076Z,4.80
2018-09-16T17:22:33.272Z,4.63
2018-09-16T17:25:03.365Z,4.73
2018-09-16T17:27:33.046Z,4.87
2018-09-16T17:30:02.563Z,5.03
2018-09-16T17:32:32.592Z,4.63
2018-09-16T17:35:06.763Z,5.13
2018-09-16T17:37:38.408Z,4.30
2018-09-16T17:40:08.116Z,5.20
2018-09-16T17:42:39.354Z,4.80
2018-09-16T17:45:09.359Z,5.20
2018-09-16T17:47:38.973Z,6.03
2018-09-16T17:50:08.889Z,5.43
2018-09-16T17:52:38.582Z,5.47
2018-09-16T17:55:08.252Z,5.17
2018-09-16T17:57:39.188Z,5.53
2018-09-16T18:00:11.582Z,5.23
2018-09-16T18:02:41.540Z,5.77
2018-09-16T18:05:12.643Z,5.10
2018-09-16T18:07:43.961Z,4.83
2018-09-16T18:10:29.364Z,6.10
2018-09-16T18:12:59.993Z,5.20
2018-09-16T18:15:32.696Z,4.83
2018-09-16T18:18:03.035Z,5.63
2018-09-16T18:20:33.321Z,6.07
2018-09-16T18:23:06.203Z,6.50
2018-09-16T18:25:36.684Z,7.13
2018-09-16T18:28:07.466Z,6.80
2018-09-16T18:30:37.309Z,6.50
2018-09-16T18:33:09.563Z,6.20
2018-09-16T18:36:05.068Z,5.30
2018-09-16T18:39:02.184Z,5.73
2018-09-16T18:41:32.182Z,5.30
2018-09-16T18:44:06.749Z,6.13
2018-09-16T18:46:41.095Z,5.80
2018-09-16T18:49:10.881Z,6.03
2018-09-16T18:51:40.546Z,6.10
2018-09-16T18:54:14.018Z,6.30
2018-09-16T18:56:53.010Z,7.00
2018-09-16T18:59:26.520Z,6.20
2018-09-16T19:02:04.310Z,7.67
2018-09-16T19:04:37.736Z,6.50
2018-09-16T19:07:11.999Z,7.87
2018-09-16T19:09:51.440Z,7.30
2018-09-16T19:12:28.450Z,6.00
2018-09-16T19:15:04.368Z,5.57
2018-09-16T19:17:41.687Z,5.60
2018-09-16T19:20:19.641Z,5.53
2018-09-16T19:22:52.719Z,6.40
2018-09-16T19:25:23.457Z,6.67
2018-09-16T19:27:53.257Z,7.70
2018-09-16T19:30:27.771Z,6.80
2018-09-16T19:32:57.712Z,5.67
2018-09-16T19:35:27.430Z,6.60
2018-09-16T19:38:02.962Z,6.70
2018-09-16T19:40:32.985Z,6.73
2018-09-16T19:43:03.365Z,7.87
2018-09-16T19:45:38.166Z,7.20
2018-09-16T19:48:12.985Z,7.93
2018-09-16T19:50:46.289Z,6.93
2018-09-16T19:53:16.084Z,7.80
2018-09-16T19:55:47.148Z,7.87
2018-09-16T19:58:27.293Z,7.50
2018-09-16T20:01:02.718Z,7.60
2018-09-16T20:03:33.079Z,6.13
2018-09-16T20:06:06.507Z,5.60
2018-09-16T20:08:36.064Z,5.90
2018-09-16T20:11:08.328Z,5.97
2018-09-16T20:13:38.914Z,6.47
2018-09-16T20:16:09.037Z,6.60
2018-09-16T20:18:44.327Z,6.53
2018-09-16T20:21:14.281Z,7.07
2018-09-16T20:23:44.246Z,6.90
2018-09-16T20:26:14.217Z,7.10
2018-09-16T20:28:47.249Z,6.93
2018-09-16T20:31:19.309Z,7.20
2018-09-16T20:33:51.143Z,6.90
2018-09-16T20:36:21.208Z,6.53
2018-09-16T20:38:57.436Z,7.17
2018-09-16T20:41:29.045Z,6.53
2018-09-16T20:43:59.361Z,11.03
2018-09-16T20:46:29.199Z,9.00
2018-09-16T20:49:02.348Z,9.33
2018-09-16T20:51:32.658Z,10.27
2018-09-16T20:54:02.352Z,10.40
2018-09-16T20:56:32.907Z,9.20
2018-09-16T20:59:05.727Z,10.23
2018-09-16T21:01:39.118Z,7.60
2018-09-16T21:04:09.346Z,7.63
2018-09-16T21:06:39.075Z,6.83
2018-09-16T21:09:11.881Z,9.43
2018-09-16T21:11:46.750Z,9.57
2018-09-16T21:14:17.603Z,11.33
2018-09-16T21:16:50.860Z,9.77
2018-09-16T21:19:23.758Z,8.53
2018-09-16T21:21:53.621Z,6.27
2018-09-16T21:24:25.265Z,6.90
2018-09-16T21:27:01.357Z,9.63
2018-09-16T21:29:37.843Z,10.87
2018-09-16T21:32:08.679Z,10.70
2018-09-16T21:34:42.932Z,11.00
2018-09-16T21:37:13.805Z,9.97
2018-09-16T21:39:44.642Z,8.50
2018-09-16T21:42:14.188Z,7.37
2018-09-16T21:44:44.494Z,7.37
2018-09-16T21:47:14.146Z,6.70
2018-09-16T21:49:46.246Z,6.83
2018-09-16T21:52:19.802Z,7.63
2018-09-16T21:54:50.122Z,7.23
2018-09-16T21:57:20.589Z,7.20
2018-09-16T21:59:51.422Z,5.93
2018-09-16T22:02:20.990Z,7.13
2018-09-16T22:04:51.009Z,5.97
2018-09-16T22:07:22.026Z,5.87
2018-09-16T22:09:52.186Z,7.07
2018-09-16T22:12:24.102Z,7.13
2018-09-16T22:14:54.525Z,7.47
2018-09-16T22:17:24.357Z,7.80
2018-09-16T22:19:53.986Z,8.40
2018-09-16T22:22:23.869Z,9.50
2018-09-16T22:24:54.493Z,9.10
2018-09-16T22:27:25.009Z,8.87
2018-09-16T22:29:55.364Z,8.47
2018-09-16T22:32:24.763Z,9.23
2018-09-16T22:34:55.223Z,8.40
2018-09-16T22:37:25.552Z,7.73
2018-09-16T22:39:55.241Z,8.73
2018-09-16T22:42:25.179Z,9.07
2018-09-16T22:44:54.890Z,10.00
2018-09-16T22:47:24.849Z,8.77
2018-09-16T22:49:55.600Z,8.77
2018-09-16T22:52:25.475Z,8.60
2018-09-16T22:54:54.871Z,7.83
2018-09-16T22:57:24.471Z,8.37
2018-09-16T23:00:01.701Z,9.17
2018-09-16T23:02:35.777Z,9.70
2018-09-16T23:05:05.329Z,10.93
2018-09-16T23:07:35.848Z,13.10
2018-09-16T23:10:06.392Z,13.50
2018-09-16T23:12:36.068Z,13.73
2018-09-16T23:15:06.110Z,12.47
2018-09-16T23:17:36.362Z,10.50
2018-09-16T23:20:07.444Z,14.77
2018-09-16T23:22:37.927Z,17.40
2018-09-16T23:25:08.060Z,16.30
2018-09-16T23:27:42.167Z,16.03
2018-09-16T23:30:12.023Z,17.00
2018-09-16T23:32:41.579Z,17.70
2018-09-16T23:35:11.149Z,22.17
2018-09-16T23:37:42.447Z,23.73
2018-09-16T23:40:20.800Z,20.33
2018-09-16T23:42:50.535Z,21.13
2018-09-16T23:45:20.218Z,21.43
2018-09-16T23:47:50.021Z,21.83
2018-09-16T23:50:19.495Z,22.93
2018-09-16T23:52:49.891Z,23.83
2018-09-16T23:55:32.855Z,24.43
2018-09-16T23:58:04.412Z,25.37
